Time;durP1;ratioP1;P1;durP2;ratioP2;P2;SDS_P1;SDS_P2;PMS_P1;PMS_P2;Temp;Humidity;BMP_temperature;BMP_pressure;BME280_temperature;BME280_humidity;BME280_pressure;Samples;Min_cycle;Max_cycle;Signal;HPM_P1;HPM_P2
2022/08/19 00:01:52;;;;;;;15.55;10.38;;;;;;;25.82;61.64;100203.44;5057284;28;20028;-80
2022/08/19 00:04:24;;;;;;;15.60;10.90;;;;;;;25.81;61.63;100205.34;5052768;28;20108;-79
2022/08/19 00:06:51;;;;;;;17.05;10.77;;;;;;;25.71;61.87;100204.25;5053224;28;20498;-79
2022/08/19 00:09:19;;;;;;;17.10;11.32;;;;;;;25.80;61.56;100205.59;5053719;28;20115;-79
2022/08/19 00:11:44;;;;;;;13.98;10.82;;;;;;;25.80;61.70;100202.84;5053976;28;20021;-79
2022/08/19 00:14:12;;;;;;;28.27;11.82;;;;;;;25.77;61.60;100204.16;5054029;28;20025;-79
2022/08/19 00:16:38;;;;;;;13.80;11.95;;;;;;;25.73;62.00;100200.19;5053407;28;20496;-79
2022/08/19 00:19:04;;;;;;;19.25;10.70;;;;;;;25.82;61.89;100208.94;5053473;28;20067;-78
2022/08/19 00:21:39;;;;;;;19.30;11.80;;;;;;;25.86;61.96;100205.50;5053184;28;20025;-79
2022/08/19 00:24:07;;;;;;;20.52;11.30;;;;;;;25.82;61.97;100209.78;5053199;28;20174;-79
2022/08/19 00:26:33;;;;;;;19.60;11.80;;;;;;;25.84;61.68;100204.06;5053632;28;20021;-79
2022/08/19 00:29:01;;;;;;;17.92;12.05;;;;;;;25.84;61.86;100213.16;5055921;28;20017;-80
2022/08/19 00:31:27;;;;;;;17.83;13.82;;;;;;;25.71;61.56;100179.44;5054548;28;20025;-80
2022/08/19 00:33:53;;;;;;;15.57;11.90;;;;;;;25.78;61.81;100196.72;5056133;28;20087;-79
2022/08/19 00:36:19;;;;;;;15.45;11.82;;;;;;;25.72;61.85;100190.22;5056032;28;20390;-79
2022/08/19 00:38:45;;;;;;;16.75;11.23;;;;;;;25.86;61.62;100212.94;5055120;28;20020;-79
2022/08/19 00:41:20;;;;;;;17.17;11.55;;;;;;;25.88;61.56;100219.03;5055301;28;20017;-78
2022/08/19 00:44:01;;;;;;;15.43;12.18;;;;;;;25.88;61.47;100214.38;5058033;28;20564;-79
2022/08/19 00:46:28;;;;;;;22.73;11.30;;;;;;;25.84;61.64;100213.16;5054917;28;20056;-78
2022/08/19 00:48:54;;;;;;;12.48;10.25;;;;;;;25.83;61.79;100199.63;5055059;28;20037;-79
2022/08/19 00:51:21;;;;;;;25.60;11.68;;;;;;;25.87;61.70;100207.16;5054851;28;20044;-80
2022/08/19 00:53:46;;;;;;;15.38;11.15;;;;;;;25.85;61.91;100208.47;5053604;28;20040;-78
2022/08/19 00:56:12;;;;;;;20.00;10.80;;;;;;;25.78;61.84;100197.56;5054938;28;20040;-78
2022/08/19 00:58:38;;;;;;;20.77;11.98;;;;;;;25.84;61.83;100209.56;5055174;28;20536;-79
2022/08/19 01:01:04;;;;;;;14.88;10.35;;;;;;;25.86;61.69;100213.78;5054928;28;20021;-78
2022/08/19 01:03:30;;;;;;;18.58;10.60;;;;;;;25.86;61.44;100205.50;5055110;28;20051;-79
2022/08/19 01:05:55;;;;;;;16.02;10.25;;;;;;;25.81;61.23;100208.09;5055102;28;20474;-78
2022/08/19 01:08:22;;;;;;;22.05;10.77;;;;;;;25.76;61.40;100199.72;5054776;28;20029;-78
2022/08/19 01:10:52;;;;;;;15.80;11.10;;;;;;;25.73;61.55;100205.69;5054839;28;20035;-78
2022/08/19 01:13:22;;;;;;;19.35;11.27;;;;;;;25.67;61.52;100195.59;5054767;28;20398;-78
2022/08/19 01:15:53;;;;;;;14.85;10.60;;;;;;;25.65;61.65;100203.28;5054584;28;20107;-78
2022/08/19 01:18:20;;;;;;;15.10;11.10;;;;;;;25.60;61.90;100211.38;5054985;28;20746;-79
2022/08/19 01:20:47;;;;;;;16.08;10.75;;;;;;;25.57;61.86;100203.56;5054820;28;20556;-79
2022/08/19 01:23:13;;;;;;;14.05;10.25;;;;;;;25.59;61.95;100209.72;5054340;28;20037;-78
2022/08/19 01:25:49;;;;;;;16.48;10.20;;;;;;;25.61;61.92;100202.03;5054235;28;20691;-78
2022/08/19 01:28:21;;;;;;;14.48;11.05;;;;;;;25.63;62.01;100208.16;5054130;28;20028;-78
2022/08/19 01:30:47;;;;;;;;;;;;;;;25.63;61.80;100205.41;5054766;28;20107;-78
2022/08/19 01:33:14;;;;;;;15.23;11.13;;;;;;;25.55;62.11;100202.97;5053002;28;19971;-78
2022/08/19 01:35:41;;;;;;;18.75;10.75;;;;;;;25.57;62.08;100199.97;5054256;28;20062;-79
2022/08/19 01:38:18;;;;;;;13.57;10.10;;;;;;;25.52;62.14;100189.66;5054420;28;20029;-78
2022/08/19 01:40:43;;;;;;;14.25;11.35;;;;;;;25.58;62.19;100197.00;5054158;28;20035;-78
2022/08/19 01:43:09;;;;;;;12.65;11.20;;;;;;;25.61;61.99;100196.53;5054130;28;20025;-78
2022/08/19 01:45:35;;;;;;;14.63;11.27;;;;;;;25.66;61.81;100199.41;5054099;28;20033;-79
2022/08/19 01:48:02;;;;;;;15.10;10.27;;;;;;;25.70;61.69;100199.81;5054088;28;20032;-79
2022/08/19 01:50:30;;;;;;;19.05;11.00;;;;;;;25.65;61.61;100189.50;5053796;28;20076;-79
2022/08/19 01:52:55;;;;;;;16.58;10.45;;;;;;;25.66;61.59;100191.16;5053856;28;20036;-79
2022/08/19 01:55:23;;;;;;;13.50;10.20;;;;;;;25.64;61.83;100189.72;5053088;28;20375;-78
2022/08/19 01:57:55;;;;;;;13.35;10.88;;;;;;;25.65;61.90;100191.41;5052407;28;20482;-79
2022/08/19 02:00:23;;;;;;;13.45;9.70;;;;;;;25.68;61.76;100194.53;5054047;28;20039;-79
2022/08/19 02:02:48;;;;;;;14.73;10.10;;;;;;;25.64;61.40;100176.78;5053872;28;20033;-79
2022/08/19 02:05:17;;;;;;;16.98;11.52;;;;;;;25.62;61.57;100170.69;5053623;28;20155;-79
2022/08/19 02:07:44;;;;;;;15.25;10.65;;;;;;;25.66;61.59;100177.38;5053784;28;20386;-79
2022/08/19 02:10:14;;;;;;;25.52;11.52;;;;;;;25.76;61.57;100185.94;5053712;28;20029;-79
2022/08/19 02:12:39;;;;;;;26.08;12.38;;;;;;;25.76;61.40;100185.09;5053494;28;20024;-79
2022/08/19 02:15:05;;;;;;;14.50;10.07;;;;;;;25.76;61.35;100183.19;5053902;28;20032;-79
2022/08/19 02:17:32;;;;;;;14.63;10.98;;;;;;;25.75;61.20;100172.38;5053827;28;20039;-79
2022/08/19 02:19:58;;;;;;;20.52;11.07;;;;;;;25.69;61.35;100171.41;5053723;28;20083;-79
2022/08/19 02:22:25;;;;;;;22.33;10.73;;;;;;;25.68;61.55;100169.75;5053566;28;20025;-79
2022/08/19 02:24:51;;;;;;;15.95;10.57;;;;;;;25.72;61.44;100170.94;5053652;28;20024;-79
2022/08/19 02:27:17;;;;;;;19.05;11.23;;;;;;;25.76;61.63;100166.66;5053203;28;20017;-79
2022/08/19 02:29:43;;;;;;;13.75;11.50;;;;;;;25.73;61.52;100167.13;5053339;28;20059;-79
2022/08/19 02:32:08;;;;;;;14.38;11.45;;;;;;;25.77;61.56;100181.28;5053660;28;20534;-78
2022/08/19 02:34:34;;;;;;;19.52;11.45;;;;;;;25.75;61.47;100175.97;5053593;28;20031;-78
2022/08/19 02:37:00;;;;;;;15.93;10.68;;;;;;;25.73;61.55;100171.78;5053373;28;20052;-79
2022/08/19 02:39:26;;;;;;;15.23;10.95;;;;;;;25.71;61.46;100166.53;5053196;28;20552;-78
2022/08/19 02:41:51;;;;;;;17.52;11.60;;;;;;;25.68;61.71;100175.25;5053291;28;20028;-79
2022/08/19 02:44:17;;;;;;;15.32;10.10;;;;;;;25.69;61.70;100176.91;5053303;28;20029;-78
2022/08/19 02:46:46;;;;;;;17.45;10.93;;;;;;;25.65;61.89;100170.22;5053191;28;20082;-79
2022/08/19 02:49:12;;;;;;;14.35;10.80;;;;;;;25.60;62.18;100161.78;5053623;28;20082;-78
2022/08/19 02:51:43;;;;;;;25.25;11.90;;;;;;;25.64;62.27;100174.03;5053168;28;20084;-79
2022/08/19 02:54:10;;;;;;;22.88;13.85;;;;;;;25.64;62.42;100174.03;5053863;28;20052;-79
2022/08/19 02:56:37;;;;;;;19.83;13.55;;;;;;;25.61;62.73;100177.25;5053262;28;20028;-79
2022/08/19 02:59:10;;;;;;;21.98;13.05;;;;;;;25.60;62.80;100181.06;5052775;28;20116;-79
2022/08/19 03:01:36;;;;;;;21.75;13.80;;;;;;;25.52;62.85;100170.41;5052646;28;20021;-79
2022/08/19 03:04:06;;;;;;;20.95;13.63;;;;;;;25.58;62.73;100182.38;5052328;28;20387;-79
2022/08/19 03:06:31;;;;;;;19.90;14.50;;;;;;;25.53;62.96;100176.75;5052256;28;20021;-79
2022/08/19 03:08:57;;;;;;;22.02;14.75;;;;;;;25.49;63.30;100179.13;5052293;28;20117;-79
2022/08/19 03:11:29;;;;;;;27.83;13.90;;;;;;;25.44;63.78;100190.78;5052106;28;20079;-79
2022/08/19 03:13:56;;;;;;;22.67;14.02;;;;;;;25.36;63.95;100182.00;5052301;28;20025;-78
2022/08/19 03:16:23;;;;;;;30.60;15.23;;;;;;;25.37;63.94;100178.19;5052120;28;20032;-79
2022/08/19 03:18:50;;;;;;;21.40;14.55;;;;;;;25.35;64.09;100196.88;5052112;28;20029;-80
2022/08/19 03:21:23;;;;;;;25.63;14.93;;;;;;;25.35;64.18;100189.41;5052137;28;20051;-79
2022/08/19 03:23:49;;;;;;;23.83;14.98;;;;;;;25.18;64.47;100179.28;5052062;28;20028;-78
2022/08/19 03:26:16;;;;;;;25.52;14.95;;;;;;;25.24;64.71;100200.38;5052061;28;20032;-79
2022/08/19 03:28:42;;;;;;;28.33;14.88;;;;;;;25.18;64.94;100193.03;5052095;28;20090;-79
2022/08/19 03:31:12;;;;;;;25.13;15.20;;;;;;;25.17;64.92;100196.84;5050510;28;20017;-79
2022/08/19 03:33:38;;;;;;;24.55;14.77;;;;;;;25.19;64.86;100214.00;5052136;28;20025;-80
2022/08/19 03:36:09;;;;;;;31.98;16.08;;;;;;;25.13;65.22;100209.41;5052103;28;20032;-79
2022/08/19 03:38:40;;;;;;;20.20;13.75;;;;;;;25.15;64.95;100218.28;5051922;28;20036;-78
2022/08/19 03:41:08;;;;;;;22.45;14.65;;;;;;;25.14;65.08;100211.06;5051847;28;20036;-79
2022/08/19 03:43:36;;;;;;;31.70;14.57;;;;;;;25.10;65.10;100227.22;5051855;28;20029;-79
2022/08/19 03:46:12;;;;;;;22.85;13.82;;;;;;;25.08;65.36;100223.00;5051884;28;20021;-79
2022/08/19 03:48:40;;;;;;;32.40;14.77;;;;;;;25.07;65.28;100226.84;5051951;28;20033;-78
2022/08/19 03:51:07;;;;;;;27.13;14.93;;;;;;;25.07;65.35;100226.84;5051901;28;20041;-79
2022/08/19 03:53:34;;;;;;;20.02;13.75;;;;;;;25.08;65.01;100221.09;5052084;28;20186;-79
2022/08/19 03:56:00;;;;;;;30.90;13.95;;;;;;;25.14;64.72;100241.34;5051868;28;20048;-79
2022/08/19 03:58:28;;;;;;;34.83;15.07;;;;;;;25.13;65.00;100236.94;5051551;28;20021;-79
2022/08/19 04:00:56;;;;;;;27.75;13.38;;;;;;;25.12;64.81;100229.75;5051582;28;20017;-77
2022/08/19 04:03:22;;;;;;;25.80;13.82;;;;;;;25.17;64.63;100239.00;5051590;28;20031;-78
2022/08/19 04:05:48;;;;;;;21.95;12.60;;;;;;;25.16;64.57;100225.47;5051487;28;20386;-78
2022/08/19 04:08:20;;;;;;;19.48;12.20;;;;;;;25.23;64.40;100238.06;5051349;28;20024;-78
2022/08/19 04:10:47;;;;;;;20.08;12.68;;;;;;;25.17;64.62;100232.63;5051517;28;20028;-77
2022/08/19 04:13:15;;;;;;;21.30;13.35;;;;;;;25.27;64.39;100239.31;5051618;28;20035;-77
2022/08/19 04:15:41;;;;;;;22.25;12.43;;;;;;;25.32;64.20;100238.59;5051510;28;20021;-77
2022/08/19 04:18:08;;;;;;;23.17;12.77;;;;;;;25.35;64.23;100240.94;5053916;28;20466;-78
2022/08/19 04:20:45;;;;;;;23.30;12.52;;;;;;;25.39;63.91;100237.47;5055626;28;20048;-82
2022/08/19 04:23:12;;;;;;;19.52;11.38;;;;;;;25.41;63.66;100234.50;5056310;28;20104;-82
2022/08/19 04:25:40;;;;;;;18.52;11.18;;;;;;;25.48;63.81;100246.25;5056461;28;20163;-82
2022/08/19 04:28:09;;;;;;;24.20;13.80;;;;;;;25.47;63.35;100244.59;5056248;28;20028;-83
2022/08/19 04:30:45;;;;;;;27.08;14.93;;;;;;;25.46;63.54;100253.91;5056874;28;20029;-82
2022/08/19 04:33:12;;;;;;;36.97;17.35;;;;;;;25.49;63.69;100258.97;5056486;28;20469;-79
2022/08/19 04:35:41;;;;;;;23.25;17.17;;;;;;;25.53;63.63;100262.97;5055335;28;20432;-82
2022/08/19 04:38:07;;;;;;;30.40;15.82;;;;;;;25.49;63.71;100258.97;5056107;28;20100;-82
2022/08/19 04:43:17;;;;;;;40.40;16.42;;;;;;;25.48;63.93;100265.53;5056149;28;20098;-80
2022/08/19 04:45:44;;;;;;;35.30;15.70;;;;;;;25.39;63.97;100259.50;5056047;28;20099;-82
2022/08/19 04:48:10;;;;;;;27.50;16.23;;;;;;;25.46;63.85;100262.16;5056065;28;20052;-81
2022/08/19 04:50:35;;;;;;;19.42;13.70;;;;;;;25.42;64.10;100252.69;5055802;28;20052;-81
2022/08/19 04:53:01;;;;;;;22.88;15.10;;;;;;;25.48;64.10;100262.75;5055829;28;20029;-82
2022/08/19 04:55:26;;;;;;;20.98;14.52;;;;;;;25.51;63.71;100256.84;5055811;28;20029;-82
2022/08/19 04:57:53;;;;;;;30.98;14.77;;;;;;;25.53;63.85;100271.22;5055816;28;20025;-82
2022/08/19 05:00:18;;;;;;;32.20;15.63;;;;;;;25.52;63.87;100264.03;5053967;28;20768;-81
2022/08/19 05:02:44;;;;;;;30.20;15.57;;;;;;;25.64;63.79;100280.63;5054690;28;20104;-78
2022/08/19 05:05:10;;;;;;;32.35;15.30;;;;;;;25.69;63.72;100276.09;5053123;28;20027;-78
2022/08/19 05:07:35;;;;;;;34.65;16.33;;;;;;;25.73;63.76;100269.06;5054289;28;20025;-81
2022/08/19 05:10:04;;;;;;;23.67;15.95;;;;;;;25.70;63.78;100254.91;5053822;28;20029;-77
2022/08/19 05:12:30;;;;;;;26.23;15.68;;;;;;;25.83;63.46;100269.34;5052935;28;20116;-76
2022/08/19 05:14:57;;;;;;;28.40;16.42;;;;;;;25.89;63.45;100271.19;5053296;28;20017;-78
2022/08/19 05:17:22;;;;;;;108.53;23.92;;;;;;;25.89;63.41;100265.66;5051814;28;20418;-80
2022/08/19 05:22:32;;;;;;;24.23;11.18;;;;;;;26.11;61.94;100265.13;5053270;28;20088;-77
2022/08/19 05:25:00;;;;;;;15.95;10.57;;;;;;;26.16;61.55;100255.13;5053314;28;20482;-78
2022/08/19 05:27:25;;;;;;;15.70;10.90;;;;;;;26.33;61.61;100266.28;5053455;28;20021;-79
2022/08/19 05:29:51;;;;;;;18.95;12.30;;;;;;;26.40;61.26;100256.00;5052142;28;20021;-82
2022/08/19 05:32:16;;;;;;;21.23;11.25;;;;;;;26.47;60.62;100237.44;5053788;28;20059;-82
2022/08/19 05:34:41;;;;;;;22.92;10.18;;;;;;;26.60;60.38;100244.66;5056531;28;20052;-81
2022/08/19 05:37:08;;;;;;;18.15;11.07;;;;;;;26.72;59.79;100243.59;5055132;28;20383;-81
2022/08/19 05:39:36;;;;;;;17.95;10.38;;;;;;;26.76;59.51;100244.78;5054110;28;20048;-80
2022/08/19 05:42:07;;;;;;;16.92;10.68;;;;;;;26.85;59.35;100243.38;5053683;28;20082;-82
2022/08/19 05:44:36;;;;;;;23.40;11.43;;;;;;;26.92;59.01;100241.34;5053386;28;20032;-80
2022/08/19 05:47:04;;;;;;;16.98;10.57;;;;;;;26.99;58.61;100249.50;5053406;28;20113;-81
2022/08/19 05:49:31;;;;;;;14.18;10.93;;;;;;;27.06;58.47;100243.84;5053358;28;20021;-81
2022/08/19 05:51:59;;;;;;;23.48;11.02;;;;;;;27.10;58.53;100243.09;5052865;28;20549;-82
2022/08/19 05:54:25;;;;;;;18.00;11.23;;;;;;;27.15;58.50;100236.88;5053207;28;20056;-82
2022/08/19 05:56:52;;;;;;;19.67;10.82;;;;;;;27.21;58.05;100230.38;5053197;28;20016;-80
2022/08/19 05:59:21;;;;;;;22.55;10.93;;;;;;;27.27;57.86;100233.03;5052633;28;20375;-78
2022/08/19 06:01:50;;;;;;;18.60;11.35;;;;;;;27.37;58.15;100235.13;5052062;28;20025;-79
2022/08/19 06:04:18;;;;;;;14.23;10.50;;;;;;;27.43;57.53;100239.75;5051956;28;20128;-76
2022/08/19 06:06:46;;;;;;;18.65;11.15;;;;;;;27.44;57.77;100225.66;5051718;28;20024;-76
2022/08/19 06:09:12;;;;;;;20.90;10.65;;;;;;;27.48;57.46;100226.03;5051807;28;20013;-76
2022/08/19 06:11:44;;;;;;;33.92;17.90;;;;;;;27.54;57.56;100219.53;5051869;28;20032;-82
2022/08/19 06:14:17;;;;;;;19.38;10.32;;;;;;;27.62;57.10;100230.16;5051927;28;20021;-77
2022/08/19 06:16:44;;;;;;;20.98;10.20;;;;;;;27.69;56.96;100228.13;5051661;28;20036;-77
2022/08/19 06:19:12;;;;;;;12.32;8.93;;;;;;;27.80;56.84;100229.13;5051768;28;20075;-76
2022/08/19 06:21:42;;;;;;;24.05;11.50;;;;;;;27.82;56.75;100225.06;5051552;28;20017;-76
2022/08/19 06:24:10;;;;;;;16.55;9.23;;;;;;;27.90;56.46;100229.34;5051113;28;20033;-76
2022/08/19 06:26:38;;;;;;;13.90;10.20;;;;;;;27.95;56.16;100221.16;5051320;28;20474;-76
2022/08/19 06:29:07;;;;;;;16.67;9.73;;;;;;;27.99;56.09;100217.63;5051634;28;20032;-76
2022/08/19 06:31:34;;;;;;;19.48;10.32;;;;;;;27.96;56.08;100220.91;5051223;28;20037;-76
2022/08/19 06:34:05;;;;;;;21.15;10.57;;;;;;;28.12;56.07;100223.97;5051599;28;20025;-76
2022/08/19 06:36:34;;;;;;;15.65;8.77;;;;;;;28.03;55.79;100207.78;5051456;28;20457;-76
2022/08/19 06:39:05;;;;;;;20.88;9.88;;;;;;;28.24;55.63;100228.34;5051267;28;20025;-76
2022/08/19 06:41:35;;;;;;;30.55;10.93;;;;;;;28.28;55.37;100231.47;5051167;28;20123;-76
2022/08/19 06:44:04;;;;;;;16.48;9.23;;;;;;;28.35;55.42;100232.13;5051497;28;20021;-76
2022/08/19 06:46:30;;;;;;;18.77;9.40;;;;;;;28.37;55.29;100229.97;5051175;28;20054;-77
2022/08/19 06:48:56;;;;;;;13.90;9.20;;;;;;;28.44;54.57;100230.66;5051241;28;20130;-78
2022/08/19 06:51:23;;;;;;;26.63;8.38;;;;;;;28.45;54.47;100232.31;5051078;28;20451;-77
2022/08/19 06:53:52;;;;;;;17.23;8.57;;;;;;;28.45;54.54;100226.75;5050996;28;20045;-79
2022/08/19 06:56:21;;;;;;;14.32;9.02;;;;;;;28.43;54.42;100209.59;5051091;28;20505;-79
2022/08/19 06:58:48;;;;;;;18.95;9.68;;;;;;;28.61;54.27;100237.00;5049704;28;20406;-79
2022/08/19 07:01:13;;;;;;;19.25;9.13;;;;;;;28.64;53.90;100222.66;5050983;28;20024;-79
2022/08/19 07:03:39;;;;;;;14.32;8.70;;;;;;;28.74;53.84;100233.94;5051782;28;20035;-79
2022/08/19 07:06:15;;;;;;;21.33;9.32;;;;;;;28.81;53.67;100231.81;5052031;28;20355;-79
2022/08/19 07:08:42;;;;;;;20.50;9.55;;;;;;;28.86;53.41;100229.13;5051943;28;20057;-79
2022/08/19 07:11:12;;;;;;;13.90;9.77;;;;;;;28.91;53.56;100231.97;5051871;28;20029;-79
2022/08/19 07:13:39;;;;;;;23.15;12.00;;;;;;;28.95;53.39;100218.47;5051924;28;20021;-79
2022/08/19 07:16:08;;;;;;;12.63;8.68;;;;;;;29.04;53.47;100219.69;5051897;28;20466;-79
2022/08/19 07:18:35;;;;;;;15.25;8.63;;;;;;;29.12;52.56;100227.56;5051970;28;20029;-79
2022/08/19 07:21:10;;;;;;;16.42;10.15;;;;;;;29.13;52.39;100219.00;5051936;28;20021;-79
2022/08/19 07:23:35;;;;;;;16.42;10.10;;;;;;;29.12;52.25;100211.78;5051622;28;20055;-79
2022/08/19 07:26:25;;;;;;;23.92;8.82;;;;;;;29.24;52.28;100214.47;5051868;28;20025;-79
2022/08/19 07:28:51;;;;;;;18.67;8.77;;;;;;;29.32;51.76;100213.19;5048649;28;20017;-77
2022/08/19 07:31:20;;;;;;;16.73;9.30;;;;;;;29.35;52.28;100210.75;5049303;28;20024;-79
2022/08/19 07:33:48;;;;;;;16.35;10.55;;;;;;;29.43;51.95;100217.75;5050442;28;20124;-76
2022/08/19 07:36:17;;;;;;;23.85;9.15;;;;;;;29.48;51.91;100213.09;5050467;28;20036;-77
2022/08/19 07:38:47;;;;;;;26.58;9.40;;;;;;;29.57;51.78;100224.59;5050796;28;20021;-77
2022/08/19 07:41:17;;;;;;;19.50;10.00;;;;;;;29.66;51.86;100217.50;5049288;28;20112;-79
2022/08/19 07:43:43;;;;;;;17.20;9.68;;;;;;;29.66;51.61;100211.94;5050484;28;20033;-77
2022/08/19 07:46:10;;;;;;;26.10;9.55;;;;;;;29.81;50.28;100231.53;5050567;28;20032;-77
2022/08/19 07:48:36;;;;;;;30.13;8.60;;;;;;;29.86;50.13;100212.19;5050539;28;20405;-80
2022/08/19 07:51:05;;;;;;;21.77;8.82;;;;;;;29.94;50.23;100225.59;5049107;28;20047;-80
2022/08/19 07:53:32;;;;;;;16.40;8.40;;;;;;;29.98;50.02;100221.19;5054190;28;20029;-80
2022/08/19 07:56:02;;;;;;;14.75;8.70;;;;;;;30.06;49.76;100206.03;5055223;28;20028;-80
2022/08/19 07:58:28;;;;;;;16.55;8.07;;;;;;;30.10;49.69;100199.69;5054694;28;20493;-77
2022/08/19 08:00:54;;;;;;;19.75;8.25;;;;;;;30.17;49.81;100193.91;5054176;28;20055;-78
2022/08/19 08:09:10;;;;;;;18.10;9.48;;;;;;;30.30;49.76;100206.53;5055109;28;20029;-80
2022/08/19 08:11:37;;;;;;;34.10;9.30;;;;;;;30.45;47.84;100192.81;5054131;28;20483;-76
2022/08/19 08:14:04;;;;;;;21.90;8.48;;;;;;;30.57;47.23;100193.44;5053988;28;20029;-75
2022/08/19 08:16:33;;;;;;;11.25;8.20;;;;;;;30.61;46.94;100191.84;5053266;28;20448;-77
2022/08/19 08:18:59;;;;;;;16.83;7.72;;;;;;;30.62;47.51;100183.22;5053675;28;20083;-78
2022/08/19 08:21:24;;;;;;;15.57;7.00;;;;;;;30.71;47.56;100191.88;5054164;28;20445;-76
2022/08/19 08:23:51;;;;;;;21.38;8.23;;;;;;;30.82;46.14;100196.41;5054200;28;20021;-78
2022/08/19 08:26:17;;;;;;;25.95;9.13;;;;;;;30.91;46.28;100196.75;5054138;28;20017;-77
2022/08/19 08:28:42;;;;;;;29.52;9.57;;;;;;;31.00;46.46;100195.16;5053802;28;20028;-78
2022/08/19 08:31:09;;;;;;;19.65;7.93;;;;;;;31.05;45.47;100186.84;5053640;28;20340;-76
2022/08/19 08:33:34;;;;;;;24.05;8.07;;;;;;;31.16;45.17;100189.41;5054173;28;20025;-76
2022/08/19 08:36:06;;;;;;;36.50;8.73;;;;;;;31.14;44.71;100166.63;5053848;28;20068;-76
2022/08/19 08:38:33;;;;;;;18.52;9.15;;;;;;;31.31;44.85;100180.31;5053827;28;20027;-76
2022/08/19 08:41:27;;;;;;;24.88;8.95;;;;;;;31.38;44.88;100182.81;5053527;28;20020;-75
2022/08/19 08:43:55;;;;;;;25.77;7.72;;;;;;;31.43;44.91;100178.13;5053879;28;20029;-78
2022/08/19 08:46:46;;;;;;;17.30;9.05;;;;;;;31.49;44.85;100170.69;5053823;28;20534;-79
2022/08/19 08:49:30;;;;;;;34.13;9.85;;;;;;;31.60;44.60;100184.34;5053614;28;20056;-77
2022/08/19 08:52:06;;;;;;;33.10;9.10;;;;;;;31.64;43.83;100173.50;5053150;28;20048;-76
2022/08/19 08:54:45;;;;;;;22.75;8.15;;;;;;;31.65;43.18;100175.19;5053394;28;20032;-76
2022/08/19 08:57:17;;;;;;;25.98;7.68;;;;;;;31.78;42.71;100185.75;5053277;28;20029;-77
2022/08/19 08:59:50;;;;;;;13.93;6.85;;;;;;;31.85;42.77;100174.38;5053384;28;20029;-76
2022/08/19 09:02:16;;;;;;;15.35;6.45;;;;;;;31.96;42.96;100174.13;5053080;28;20013;-75
2022/08/19 09:04:41;;;;;;;12.02;7.93;;;;;;;32.08;43.32;100166.38;5053033;28;20471;-76
2022/08/19 09:07:15;;;;;;;18.55;7.47;;;;;;;32.21;42.82;100179.75;5053066;28;20035;-75
2022/08/19 09:09:46;;;;;;;17.45;7.20;;;;;;;32.26;41.92;100165.00;5053453;28;20025;-80
2022/08/19 09:12:43;;;;;;;11.25;7.55;;;;;;;32.23;41.11;100171.94;5053842;28;20035;-79
2022/08/19 09:15:11;;;;;;;30.60;8.23;;;;;;;32.28;41.71;100190.59;5054251;28;20074;-82
2022/08/19 09:17:38;;;;;;;26.88;8.35;;;;;;;32.33;41.55;100177.50;5054414;28;20029;-85
2022/08/19 09:20:20;;;;;;;28.55;7.22;;;;;;;32.44;41.71;100170.00;5054276;28;20036;-79
2022/08/19 09:22:46;;;;;;;;;;;;;;;32.53;41.77;100181.41;5053896;28;20024;-82
2022/08/19 09:25:14;;;;;;;14.38;7.30;;;;;;;32.55;41.06;100184.75;5053368;28;20253;-82
2022/08/19 09:27:41;;;;;;;18.00;7.25;;;;;;;32.62;41.19;100171.41;5053350;28;20032;-80
2022/08/19 09:30:10;;;;;;;39.30;8.23;;;;;;;32.66;41.53;100178.09;5052965;28;20017;-79
2022/08/19 09:32:35;;;;;;;17.33;7.93;;;;;;;32.71;40.85;100192.00;5052770;28;20113;-80
2022/08/19 09:35:01;;;;;;;28.10;7.07;;;;;;;32.69;40.42;100194.25;5053062;28;20450;-80
2022/08/19 09:37:27;;;;;;;13.52;6.85;;;;;;;32.73;40.89;100182.25;5053649;28;20032;-80
2022/08/19 09:39:53;;;;;;;20.25;7.25;;;;;;;32.75;40.81;100191.13;5053365;28;20025;-79
2022/08/19 09:42:19;;;;;;;18.02;11.93;;;;;;;32.80;40.37;100195.88;5051954;28;20078;-79
2022/08/19 09:44:46;;;;;;;16.25;7.15;;;;;;;32.69;40.32;100195.06;5052451;28;20025;-79
2022/08/19 09:47:13;;;;;;;21.33;7.22;;;;;;;32.66;40.13;100192.03;5052365;28;20017;-79
2022/08/19 09:49:40;;;;;;;33.40;8.45;;;;;;;32.65;40.37;100170.84;5051925;28;20025;-81
2022/08/19 09:52:08;;;;;;;18.13;8.10;;;;;;;32.79;39.93;100180.28;5053457;28;20031;-77
2022/08/19 09:54:34;;;;;;;23.40;7.93;;;;;;;32.93;40.06;100174.97;5052103;28;20041;-80
2022/08/19 09:57:00;;;;;;;38.78;9.63;;;;;;;33.12;39.97;100178.84;5051099;28;20378;-78
2022/08/19 09:59:26;;;;;;;31.50;8.25;;;;;;;33.04;39.82;100166.28;5054232;28;20028;-90
2022/08/19 10:01:52;;;;;;;11.70;7.35;;;;;;;33.08;39.46;100177.72;5052595;28;20432;-81
2022/08/19 10:04:17;;;;;;;21.20;8.32;;;;;;;33.11;39.34;100174.38;5053120;28;20033;-80
2022/08/19 10:06:43;;;;;;;21.08;7.95;;;;;;;33.17;39.18;100171.28;5053334;28;20489;-82
2022/08/19 10:09:10;;;;;;;23.13;9.95;;;;;;;33.45;39.30;100188.47;5052964;28;20052;-78
2022/08/19 10:11:39;;;;;;;20.02;8.35;;;;;;;33.60;38.20;100180.06;5053055;28;20036;-81
2022/08/19 10:14:07;;;;;;;24.27;7.07;;;;;;;33.64;37.85;100186.72;5053277;28;20024;-78
2022/08/19 10:16:33;;;;;;;34.33;8.57;;;;;;;33.59;37.93;100195.06;5052285;28;20513;-79
2022/08/19 10:18:59;;;;;;;20.40;7.28;;;;;;;33.59;38.34;100190.38;5053405;28;20052;-84
2022/08/19 10:21:31;;;;;;;30.50;8.02;;;;;;;33.73;38.63;100193.38;5052053;28;20045;-82
2022/08/19 10:23:59;;;;;;;15.15;7.75;;;;;;;33.75;38.37;100199.50;5052681;28;20482;-76
2022/08/19 10:26:28;;;;;;;15.20;6.75;;;;;;;33.73;38.59;100190.59;5052642;28;20021;-78
2022/08/19 10:28:54;;;;;;;22.63;7.45;;;;;;;33.69;37.41;100183.91;5052125;28;20115;-77
2022/08/19 10:31:31;;;;;;;15.75;7.47;;;;;;;33.67;36.42;100175.00;5052147;28;20099;-78
2022/08/19 10:33:59;;;;;;;21.20;6.82;;;;;;;33.85;37.02;100177.13;5052606;28;20021;-77
2022/08/19 10:36:29;;;;;;;15.30;6.80;;;;;;;33.99;37.29;100178.13;5052475;28;20021;-77
2022/08/19 10:38:58;;;;;;;21.35;7.85;;;;;;;34.11;36.88;100183.38;5052472;28;20028;-76
2022/08/19 10:41:26;;;;;;;13.13;6.32;;;;;;;33.99;36.31;100180.91;5052327;28;20528;-78
2022/08/19 10:43:54;;;;;;;29.13;7.63;;;;;;;34.17;36.54;100197.00;5052269;28;20471;-77
2022/08/19 10:46:22;;;;;;;12.15;6.68;;;;;;;34.31;35.52;100192.41;5052336;28;20029;-78
2022/08/19 10:48:49;;;;;;;14.25;6.18;;;;;;;34.39;35.67;100193.75;5052179;28;20108;-78
2022/08/19 10:54:01;;;;;;;18.75;7.03;;;;;;;34.32;35.12;100191.31;5052158;28;20104;-79
2022/08/19 10:59:13;;;;;;;33.85;6.97;;;;;;;34.61;34.74;100194.16;5052447;28;20395;-77
2022/08/19 11:01:39;;;;;;;12.98;6.75;;;;;;;34.77;34.13;100204.03;5052182;28;20182;-77
2022/08/19 11:04:08;;;;;;;15.98;7.40;;;;;;;34.49;44.68;100217.97;5052125;28;20541;-76
2022/08/19 11:06:33;;;;;;;21.67;9.18;;;;;;;34.11;48.16;100225.25;5052060;28;20029;-75
2022/08/19 11:08:59;;;;;;;15.02;9.73;;;;;;;33.12;50.56;100215.88;5052276;28;20040;-76
2022/08/19 11:11:26;;;;;;;12.68;9.80;;;;;;;32.98;50.83;100220.38;5051678;28;20090;-76
2022/08/19 11:13:52;;;;;;;32.88;11.23;;;;;;;32.61;51.77;100211.50;5051940;28;20061;-76
2022/08/19 11:16:23;;;;;;;22.92;11.43;;;;;;;32.23;53.81;100202.56;5051094;28;20039;-78
2022/08/19 11:18:52;;;;;;;32.20;10.57;;;;;;;32.12;53.41;100192.53;5049389;28;20123;-79
2022/08/19 11:21:20;;;;;;;15.73;9.38;;;;;;;31.94;53.84;100208.88;5050534;28;20108;-80
2022/08/19 11:23:47;;;;;;;13.30;9.57;;;;;;;31.80;53.71;100211.38;5050406;28;20083;-80
2022/08/19 11:26:15;;;;;;;30.25;11.52;;;;;;;31.71;55.41;100215.81;5048838;28;20033;-80
2022/08/19 11:28:41;;;;;;;18.48;12.20;;;;;;;31.82;57.71;100214.72;5050427;28;20442;-80
2022/08/19 11:31:18;;;;;;;22.38;11.80;;;;;;;31.62;59.47;100220.22;5051002;28;20040;-79
2022/08/19 11:33:45;;;;;;;18.10;11.40;;;;;;;31.52;59.71;100200.72;5050774;28;20052;-81